createdAt,value
2023-12-30T00:00:42.166Z,2.80
2023-12-30T00:03:09.381Z,2.70
2023-12-30T00:05:36.498Z,2.68
2023-12-30T00:08:03.962Z,2.54
2023-12-30T00:10:32.074Z,2.57
2023-12-30T00:13:00.553Z,2.75
2023-12-30T00:15:27.762Z,2.73
2023-12-30T00:17:57.744Z,2.84
2023-12-30T00:20:26.983Z,2.95
2023-12-30T00:22:54.188Z,3.04
2023-12-30T00:25:23.431Z,3.08
2023-12-30T00:27:53.169Z,2.85
2023-12-30T00:30:20.461Z,2.69
2023-12-30T00:32:47.841Z,2.58
2023-12-30T00:35:15.210Z,2.58
2023-12-30T00:37:42.580Z,2.70
2023-12-30T00:40:10.423Z,2.85
2023-12-30T00:42:38.584Z,2.93
2023-12-30T00:45:08.243Z,2.96
2023-12-30T00:47:37.598Z,3.07
2023-12-30T00:50:05.507Z,3.07
2023-12-30T00:52:32.706Z,3.12
2023-12-30T00:54:59.799Z,2.99
2023-12-30T00:57:27.433Z,3.05
2023-12-30T00:59:54.576Z,3.14
2023-12-30T01:02:21.605Z,3.23
2023-12-30T01:04:49.160Z,3.20
2023-12-30T01:07:16.517Z,3.25
2023-12-30T01:09:43.633Z,3.21
2023-12-30T01:12:10.820Z,3.32
2023-12-30T01:14:37.927Z,3.39
2023-12-30T01:17:05.507Z,3.44
2023-12-30T01:19:33.347Z,3.33
2023-12-30T01:22:00.618Z,3.23
2023-12-30T01:24:27.845Z,3.13
2023-12-30T01:26:55.570Z,3.04
2023-12-30T01:29:22.762Z,2.68
2023-12-30T01:31:49.923Z,2.49
2023-12-30T01:34:17.181Z,2.39
2023-12-30T01:36:44.312Z,2.30
2023-12-30T01:39:11.550Z,2.40
2023-12-30T01:41:38.648Z,2.52
2023-12-30T01:44:06.339Z,2.59
2023-12-30T01:46:33.880Z,2.59
2023-12-30T01:49:01.168Z,2.72
2023-12-30T01:51:28.406Z,2.71
2023-12-30T01:53:58.819Z,2.79
2023-12-30T01:56:26.963Z,2.78
2023-12-30T01:58:54.380Z,2.75
2023-12-30T02:01:28.938Z,2.74
2023-12-30T02:03:57.134Z,2.85
2023-12-30T02:06:24.884Z,2.78
2023-12-30T02:08:52.085Z,2.70
2023-12-30T02:11:19.610Z,2.66
2023-12-30T02:13:47.110Z,2.58
2023-12-30T02:16:14.216Z,2.76
2023-12-30T02:18:41.528Z,2.86
2023-12-30T02:21:08.916Z,2.89
2023-12-30T02:23:36.411Z,2.85
2023-12-30T02:26:03.794Z,2.96
2023-12-30T02:28:30.980Z,2.96
2023-12-30T02:30:58.374Z,3.09
2023-12-30T02:33:25.682Z,3.06
2023-12-30T02:35:53.305Z,2.99
2023-12-30T02:38:20.370Z,2.86
2023-12-30T02:40:47.747Z,2.83
2023-12-30T02:43:15.069Z,2.78
2023-12-30T02:45:42.618Z,2.81
2023-12-30T02:48:10.133Z,2.75
2023-12-30T02:50:37.549Z,2.67
2023-12-30T02:53:04.822Z,2.75
2023-12-30T02:55:38.909Z,2.71
2023-12-30T02:58:06.201Z,2.85
2023-12-30T03:00:33.288Z,2.86
2023-12-30T03:03:00.716Z,2.78
2023-12-30T03:05:29.286Z,2.70
2023-12-30T03:07:58.963Z,2.69
2023-12-30T03:10:26.653Z,2.62
2023-12-30T03:12:53.977Z,2.47
2023-12-30T03:15:21.717Z,2.15
2023-12-30T03:17:48.886Z,2.00
2023-12-30T03:20:16.104Z,1.93
2023-12-30T03:22:43.242Z,1.93
2023-12-30T03:25:10.503Z,2.08
2023-12-30T03:27:38.063Z,2.04
2023-12-30T03:30:06.424Z,2.20
2023-12-30T03:32:36.830Z,2.31
2023-12-30T03:35:07.853Z,2.41
2023-12-30T03:37:35.234Z,2.45
2023-12-30T03:40:02.517Z,2.50
2023-12-30T03:42:29.635Z,2.50
2023-12-30T03:44:58.193Z,2.46
2023-12-30T03:47:25.356Z,2.32
2023-12-30T03:49:52.680Z,2.55
2023-12-30T03:52:19.979Z,2.27
2023-12-30T03:54:47.124Z,2.13
2023-12-30T03:57:15.233Z,2.00
2023-12-30T03:59:42.437Z,1.85
2023-12-30T04:02:09.573Z,1.74
2023-12-30T04:04:37.221Z,1.77
2023-12-30T04:07:04.944Z,1.79
2023-12-30T04:09:32.226Z,1.75
2023-12-30T04:11:59.320Z,1.87
2023-12-30T04:14:26.509Z,1.92
2023-12-30T04:16:53.753Z,2.00
2023-12-30T04:19:21.026Z,2.14
2023-12-30T04:21:48.261Z,2.03
2023-12-30T04:24:15.366Z,2.13
2023-12-30T04:26:44.496Z,2.18
2023-12-30T04:29:12.652Z,2.24
2023-12-30T04:31:40.007Z,2.38
2023-12-30T04:34:07.246Z,2.32
2023-12-30T04:36:34.412Z,2.24
2023-12-30T04:39:01.477Z,2.16
2023-12-30T04:41:29.142Z,2.26
2023-12-30T04:43:56.230Z,2.38
2023-12-30T04:46:23.695Z,2.24
2023-12-30T04:48:54.201Z,2.11
2023-12-30T04:51:25.480Z,2.03
2023-12-30T04:53:52.710Z,2.08
2023-12-30T04:56:20.067Z,2.08
2023-12-30T04:58:47.201Z,2.03
2023-12-30T05:01:14.515Z,2.04
2023-12-30T05:03:45.053Z,2.20
2023-12-30T05:06:22.964Z,2.32
2023-12-30T05:08:54.426Z,2.19
2023-12-30T05:11:21.677Z,2.12
2023-12-30T05:13:49.442Z,2.03
2023-12-30T05:16:16.794Z,2.16
2023-12-30T05:18:47.133Z,2.24
2023-12-30T05:21:19.033Z,2.19
2023-12-30T05:23:49.189Z,2.20
2023-12-30T05:26:16.510Z,2.09
2023-12-30T05:28:43.664Z,2.02
2023-12-30T05:31:11.440Z,2.02
2023-12-30T05:33:38.695Z,2.02
2023-12-30T05:36:06.323Z,1.96
2023-12-30T05:38:33.435Z,1.98
2023-12-30T05:41:00.552Z,2.07
2023-12-30T05:43:27.738Z,2.08
2023-12-30T05:45:55.058Z,2.16
2023-12-30T05:48:22.368Z,2.13
2023-12-30T05:50:49.574Z,2.18
2023-12-30T05:53:17.144Z,2.31
2023-12-30T05:55:44.305Z,2.47
2023-12-30T05:58:11.543Z,2.47
2023-12-30T06:00:38.752Z,2.48
2023-12-30T06:03:06.931Z,2.45
2023-12-30T06:05:34.664Z,2.69
2023-12-30T06:08:02.042Z,2.48
2023-12-30T06:10:32.335Z,2.32
2023-12-30T06:13:00.146Z,2.10
2023-12-30T06:15:27.726Z,2.08
2023-12-30T06:17:55.128Z,2.00
2023-12-30T06:20:22.702Z,2.10
2023-12-30T06:22:50.879Z,2.10
2023-12-30T06:25:18.577Z,2.08
2023-12-30T06:27:46.386Z,2.17
2023-12-30T06:30:15.036Z,2.28
2023-12-30T06:32:42.896Z,2.34
2023-12-30T06:35:10.293Z,2.34
2023-12-30T06:37:37.656Z,2.29
2023-12-30T06:40:05.632Z,2.34
2023-12-30T06:42:32.761Z,2.68
2023-12-30T06:44:59.983Z,2.83
2023-12-30T06:47:27.291Z,2.97
2023-12-30T06:49:54.695Z,3.05
2023-12-30T06:52:22.359Z,3.08
2023-12-30T06:54:58.909Z,3.13
2023-12-30T06:57:34.044Z,3.11
2023-12-30T07:00:02.413Z,3.11
2023-12-30T07:02:31.416Z,3.10
2023-12-30T07:04:58.603Z,3.12
2023-12-30T07:07:25.826Z,3.12
2023-12-30T07:09:53.183Z,3.16
2023-12-30T07:12:20.522Z,3.15
2023-12-30T07:14:53.275Z,3.31
2023-12-30T07:17:20.553Z,3.41
2023-12-30T07:19:51.138Z,3.63
2023-12-30T07:22:23.020Z,3.74
2023-12-30T07:24:50.895Z,3.84
2023-12-30T07:27:18.724Z,4.05
2023-12-30T07:29:47.996Z,4.30
2023-12-30T07:32:15.223Z,4.50
2023-12-30T07:34:42.664Z,4.64
2023-12-30T07:37:10.351Z,4.68
2023-12-30T07:39:37.990Z,4.90
2023-12-30T07:42:05.811Z,4.93
2023-12-30T07:44:38.679Z,4.96
2023-12-30T07:47:08.324Z,5.01
2023-12-30T07:49:36.287Z,5.07
2023-12-30T07:52:04.224Z,5.33
2023-12-30T07:54:33.956Z,5.38
2023-12-30T07:57:01.297Z,5.54
2023-12-30T07:59:28.568Z,5.42
2023-12-30T08:01:57.880Z,5.59
2023-12-30T08:04:30.144Z,5.58
2023-12-30T08:07:00.454Z,5.70
2023-12-30T08:09:31.831Z,5.68
2023-12-30T08:12:02.747Z,6.12
2023-12-30T08:14:31.189Z,6.01
2023-12-30T08:17:06.648Z,5.98
2023-12-30T08:19:34.464Z,6.29
2023-12-30T08:22:01.786Z,6.63
2023-12-30T08:24:32.065Z,6.83
2023-12-30T08:27:00.204Z,7.33
2023-12-30T08:29:31.203Z,7.46
2023-12-30T08:31:58.602Z,7.67
2023-12-30T08:34:29.523Z,7.89
2023-12-30T08:36:59.138Z,8.07
2023-12-30T08:39:26.586Z,8.24
2023-12-30T08:41:53.802Z,8.49
2023-12-30T08:44:21.048Z,8.77
2023-12-30T08:46:49.501Z,8.92
2023-12-30T08:49:16.851Z,9.05
2023-12-30T08:51:44.188Z,8.93
2023-12-30T08:54:11.536Z,9.06
2023-12-30T08:56:38.771Z,9.21
2023-12-30T08:59:10.061Z,9.45
2023-12-30T09:01:38.216Z,9.89
2023-12-30T09:04:06.120Z,10.36
2023-12-30T09:06:33.445Z,10.90
2023-12-30T09:09:01.036Z,11.36
2023-12-30T09:11:29.575Z,11.63
2023-12-30T09:13:56.834Z,11.84
2023-12-30T09:16:27.451Z,11.94
2023-12-30T09:18:54.882Z,11.97
2023-12-30T09:21:25.363Z,11.39
2023-12-30T09:23:56.130Z,10.98
2023-12-30T09:26:24.728Z,10.92
2023-12-30T09:28:54.514Z,10.72
2023-12-30T09:31:25.362Z,10.45
2023-12-30T09:36:20.510Z,10.14
2023-12-30T09:38:47.939Z,10.11
2023-12-30T09:41:21.149Z,10.03
2023-12-30T09:43:53.788Z,10.04
2023-12-30T09:46:24.011Z,10.24
2023-12-30T09:48:54.636Z,10.40
2023-12-30T09:51:25.689Z,10.55
2023-12-30T09:53:56.334Z,10.53
2023-12-30T09:56:25.005Z,10.66
2023-12-30T09:58:55.005Z,10.84
2023-12-30T10:01:23.195Z,10.93
2023-12-30T10:03:50.335Z,11.04
2023-12-30T10:06:24.316Z,11.16
2023-12-30T10:08:54.432Z,11.31
2023-12-30T10:11:27.040Z,11.53
2023-12-30T10:13:55.695Z,11.60
2023-12-30T10:16:23.366Z,11.79
2023-12-30T10:18:51.770Z,11.87
2023-12-30T10:21:20.999Z,11.89
2023-12-30T10:23:52.766Z,12.03
2023-12-30T10:26:23.004Z,12.21
2023-12-30T10:28:51.715Z,12.23
2023-12-30T10:31:19.401Z,12.36
2023-12-30T10:33:50.914Z,12.39
2023-12-30T10:36:29.156Z,12.39
2023-12-30T10:39:00.795Z,12.81
2023-12-30T10:41:28.709Z,13.22
2023-12-30T10:43:57.777Z,13.42
2023-12-30T10:46:33.955Z,13.65
2023-12-30T10:49:05.887Z,13.60
2023-12-30T10:51:56.911Z,13.34
2023-12-30T10:54:36.040Z,13.13
2023-12-30T10:57:08.050Z,13.50
2023-12-30T10:59:38.757Z,13.20
2023-12-30T11:02:07.483Z,13.24
2023-12-30T11:04:35.048Z,13.41
2023-12-30T11:07:07.151Z,13.71
2023-12-30T11:09:34.667Z,13.73
2023-12-30T11:12:03.766Z,13.83
2023-12-30T11:14:36.806Z,14.23
2023-12-30T11:17:09.813Z,14.75
2023-12-30T11:19:40.517Z,14.86
2023-12-30T11:22:08.093Z,14.78
2023-12-30T11:24:36.620Z,15.00
2023-12-30T11:27:07.699Z,14.88
2023-12-30T11:29:39.732Z,14.70
2023-12-30T11:32:08.933Z,14.58
2023-12-30T11:34:37.546Z,14.48
2023-12-30T11:37:08.877Z,14.85
2023-12-30T11:39:41.484Z,14.69
2023-12-30T11:42:11.256Z,14.90
2023-12-30T11:44:40.580Z,14.70
2023-12-30T11:47:07.871Z,15.03
2023-12-30T11:49:36.547Z,15.10
2023-12-30T11:52:06.466Z,14.98
2023-12-30T11:54:34.788Z,14.76
2023-12-30T11:57:02.815Z,14.45
2023-12-30T11:59:31.733Z,14.32
2023-12-30T12:02:15.430Z,14.19
2023-12-30T12:04:44.416Z,14.39
2023-12-30T12:07:14.374Z,14.46
2023-12-30T12:09:43.941Z,14.66
2023-12-30T12:12:14.801Z,14.85
2023-12-30T12:14:50.741Z,15.43
2023-12-30T12:17:25.012Z,15.67
2023-12-30T12:19:54.919Z,15.79
2023-12-30T12:22:25.107Z,16.03
2023-12-30T12:25:03.129Z,16.13
2023-12-30T12:27:31.642Z,16.43
2023-12-30T12:30:00.651Z,16.63
2023-12-30T12:32:29.726Z,16.83
2023-12-30T12:34:59.247Z,16.87
2023-12-30T12:37:27.570Z,16.74
2023-12-30T12:39:56.031Z,16.69
2023-12-30T12:42:30.497Z,16.77
2023-12-30T12:44:59.340Z,16.87
2023-12-30T12:47:29.319Z,16.78
2023-12-30T12:49:59.105Z,16.76
2023-12-30T12:52:27.188Z,16.99
2023-12-30T12:54:54.514Z,17.24
2023-12-30T12:57:21.895Z,17.45
2023-12-30T12:59:49.493Z,17.66
2023-12-30T13:02:20.329Z,17.76
2023-12-30T13:04:48.620Z,17.91
2023-12-30T13:07:16.586Z,17.93
2023-12-30T13:09:53.090Z,17.87
2023-12-30T13:12:22.321Z,17.67
2023-12-30T13:14:53.707Z,17.61
2023-12-30T13:17:21.303Z,17.38
2023-12-30T13:19:54.899Z,17.17
2023-12-30T13:22:24.131Z,17.06
2023-12-30T13:24:53.184Z,16.75
2023-12-30T13:27:21.634Z,16.47
2023-12-30T13:29:49.712Z,16.24
2023-12-30T13:32:17.773Z,16.24
2023-12-30T13:34:49.238Z,16.22
2023-12-30T13:37:17.682Z,16.32
2023-12-30T13:39:46.775Z,16.51
2023-12-30T13:42:16.738Z,16.61
2023-12-30T13:44:49.349Z,16.80
2023-12-30T13:47:35.281Z,16.90
2023-12-30T13:50:21.508Z,16.78
2023-12-30T13:52:51.861Z,16.51
2023-12-30T13:55:22.123Z,16.12
2023-12-30T13:57:54.115Z,15.81
2023-12-30T14:00:22.073Z,15.36
2023-12-30T14:02:54.163Z,14.96
2023-12-30T14:05:31.398Z,14.72
2023-12-30T14:08:11.097Z,14.68
2023-12-30T14:10:38.413Z,14.48
2023-12-30T14:13:06.741Z,14.24
2023-12-30T14:15:36.081Z,13.94
2023-12-30T14:18:04.523Z,13.70
2023-12-30T14:20:36.157Z,13.56
2023-12-30T14:23:05.865Z,13.47
2023-12-30T14:25:36.296Z,13.30
2023-12-30T14:28:06.648Z,13.40
2023-12-30T14:30:36.553Z,13.37
2023-12-30T14:33:10.509Z,13.35
2023-12-30T14:35:39.352Z,13.40
2023-12-30T14:38:07.903Z,13.30
2023-12-30T14:40:36.916Z,13.19
2023-12-30T14:43:05.080Z,13.00
2023-12-30T14:45:37.913Z,12.69
2023-12-30T14:48:08.523Z,12.44
2023-12-30T14:50:36.457Z,12.33
2023-12-30T14:53:05.287Z,12.22
2023-12-30T14:55:33.308Z,11.98
2023-12-30T14:58:23.222Z,11.85
2023-12-30T15:00:53.025Z,11.67
2023-12-30T15:03:23.693Z,11.57
2023-12-30T15:05:56.217Z,11.42
2023-12-30T15:08:26.983Z,11.29
2023-12-30T15:10:58.137Z,11.15
2023-12-30T15:13:25.614Z,11.08
2023-12-30T15:15:53.813Z,10.97
2023-12-30T15:18:26.109Z,10.92
2023-12-30T15:20:56.158Z,10.80
2023-12-30T15:23:27.230Z,10.72
2023-12-30T15:26:02.971Z,10.63
2023-12-30T15:28:34.145Z,10.56
2023-12-30T15:31:07.683Z,10.47
2023-12-30T15:33:43.471Z,10.60
2023-12-30T15:36:19.097Z,10.42
2023-12-30T15:38:52.348Z,10.37
2023-12-30T15:41:25.134Z,10.24
2023-12-30T15:43:58.351Z,10.23
2023-12-30T15:46:29.865Z,10.16
2023-12-30T15:48:59.478Z,10.18
2023-12-30T15:51:30.469Z,10.16
2023-12-30T15:54:00.044Z,10.03
2023-12-30T15:56:34.746Z,9.93
2023-12-30T15:59:03.210Z,9.66
2023-12-30T16:01:34.162Z,9.57
2023-12-30T16:04:03.646Z,9.55
2023-12-30T16:06:33.273Z,9.57
2023-12-30T16:09:01.939Z,9.49
2023-12-30T16:11:31.763Z,9.48
2023-12-30T16:14:02.545Z,9.51
2023-12-30T16:16:40.889Z,9.53
2023-12-30T16:19:12.556Z,9.45
2023-12-30T16:21:50.822Z,9.39
2023-12-30T16:24:24.668Z,9.36
2023-12-30T16:27:15.988Z,9.20
2023-12-30T16:29:48.885Z,9.07
2023-12-30T16:32:40.073Z,9.00
2023-12-30T16:35:11.208Z,8.93
2023-12-30T16:37:46.906Z,8.88
2023-12-30T16:40:18.498Z,8.85
2023-12-30T16:43:07.384Z,8.82
2023-12-30T16:45:42.191Z,8.73
2023-12-30T16:48:17.813Z,8.62
2023-12-30T16:50:47.393Z,8.54
2023-12-30T16:53:15.389Z,8.49
2023-12-30T16:55:48.050Z,8.52
2023-12-30T16:58:18.521Z,8.53
2023-12-30T17:00:51.208Z,8.64
2023-12-30T17:03:20.285Z,8.40
2023-12-30T17:05:49.487Z,8.08
2023-12-30T17:08:19.670Z,8.02
2023-12-30T17:10:48.656Z,8.03
2023-12-30T17:13:31.650Z,7.98
2023-12-30T17:16:08.564Z,7.94
2023-12-30T17:18:44.313Z,7.89
2023-12-30T17:21:13.504Z,7.86
2023-12-30T17:23:42.379Z,7.76
2023-12-30T17:26:38.111Z,7.65
2023-12-30T17:29:26.799Z,7.50
2023-12-30T17:31:57.962Z,7.39
2023-12-30T17:34:37.294Z,7.30
2023-12-30T17:37:08.202Z,7.41
2023-12-30T17:39:37.319Z,7.40
2023-12-30T17:42:14.478Z,7.39
2023-12-30T17:44:43.641Z,7.36
2023-12-30T17:47:12.156Z,7.29
2023-12-30T17:49:44.224Z,7.14
2023-12-30T17:52:15.760Z,7.09
2023-12-30T17:54:46.907Z,7.02
2023-12-30T17:57:17.816Z,7.01
2023-12-30T17:59:48.023Z,7.02
2023-12-30T18:02:20.283Z,7.06
2023-12-30T18:04:49.576Z,7.02
2023-12-30T18:07:19.443Z,7.01
2023-12-30T18:09:49.941Z,7.07
2023-12-30T18:12:19.189Z,7.12
2023-12-30T18:14:46.432Z,7.08
2023-12-30T18:17:13.669Z,7.10
2023-12-30T18:19:42.728Z,7.10
2023-12-30T18:22:12.482Z,7.09
2023-12-30T18:24:40.829Z,7.11
2023-12-30T18:27:12.666Z,7.13
2023-12-30T18:29:43.877Z,7.13
2023-12-30T18:32:13.235Z,7.12
2023-12-30T18:34:43.639Z,7.13
2023-12-30T18:37:15.898Z,7.10
2023-12-30T18:39:43.917Z,7.07
2023-12-30T18:42:15.075Z,7.03
2023-12-30T18:44:43.652Z,7.07
2023-12-30T18:47:14.206Z,7.09
2023-12-30T18:49:43.056Z,7.03
2023-12-30T18:52:13.516Z,7.08
2023-12-30T18:54:43.756Z,6.98
2023-12-30T18:57:15.037Z,7.09
2023-12-30T18:59:51.018Z,7.06
2023-12-30T19:02:20.968Z,7.06
2023-12-30T19:04:50.490Z,7.10
2023-12-30T19:07:20.335Z,7.06
2023-12-30T19:12:33.004Z,7.04
2023-12-30T19:15:05.918Z,6.94
2023-12-30T19:17:35.298Z,6.95
2023-12-30T19:20:07.537Z,7.12
2023-12-30T19:22:40.933Z,7.01
2023-12-30T19:25:10.293Z,6.90
2023-12-30T19:28:01.816Z,6.94
2023-12-30T19:30:30.205Z,7.06
2023-12-30T19:32:58.953Z,7.01
2023-12-30T19:35:28.758Z,7.00
2023-12-30T19:38:03.154Z,6.95
2023-12-30T19:40:34.738Z,6.82
2023-12-30T19:43:06.201Z,6.88
2023-12-30T19:45:35.223Z,6.81
2023-12-30T19:48:04.698Z,6.82
2023-12-30T19:50:36.252Z,6.54
2023-12-30T19:53:05.338Z,6.34
2023-12-30T19:55:35.424Z,6.05
2023-12-30T19:58:04.735Z,5.99
2023-12-30T20:00:32.266Z,5.80
2023-12-30T20:03:04.645Z,5.76
2023-12-30T20:05:34.537Z,5.85
2023-12-30T20:08:01.891Z,6.03
2023-12-30T20:10:29.510Z,6.17
2023-12-30T20:12:59.435Z,6.21
2023-12-30T20:15:27.498Z,6.22
2023-12-30T20:17:57.589Z,6.26
2023-12-30T20:20:27.169Z,6.28
2023-12-30T20:22:55.941Z,6.20
2023-12-30T20:25:25.364Z,6.23
2023-12-30T20:28:00.074Z,6.32
2023-12-30T20:30:28.726Z,6.28
2023-12-30T20:32:58.795Z,6.41
2023-12-30T20:35:26.879Z,6.28
2023-12-30T20:37:56.455Z,6.16
2023-12-30T20:40:25.234Z,6.03
2023-12-30T20:43:00.553Z,6.06
2023-12-30T20:45:33.500Z,6.18
2023-12-30T20:48:02.795Z,5.97
2023-12-30T20:50:31.696Z,5.80
2023-12-30T20:53:00.587Z,5.85
2023-12-30T20:55:50.034Z,5.93
2023-12-30T20:58:22.259Z,5.88
2023-12-30T21:00:50.280Z,5.81
2023-12-30T21:03:18.662Z,5.97
2023-12-30T21:05:46.847Z,6.13
2023-12-30T21:08:14.266Z,5.91
2023-12-30T21:10:41.673Z,5.69
2023-12-30T21:13:09.211Z,5.61
2023-12-30T21:15:37.139Z,5.46
2023-12-30T21:18:05.091Z,5.49
2023-12-30T21:20:32.435Z,5.67
2023-12-30T21:22:59.576Z,5.76
2023-12-30T21:25:27.847Z,5.78
2023-12-30T21:27:55.197Z,5.66
2023-12-30T21:30:25.567Z,5.58
2023-12-30T21:32:53.374Z,5.54
2023-12-30T21:35:20.785Z,5.75
2023-12-30T21:37:48.755Z,5.97
2023-12-30T21:40:18.313Z,5.91
2023-12-30T21:42:48.346Z,5.72
2023-12-30T21:45:15.621Z,5.67
2023-12-30T21:47:43.497Z,5.85
2023-12-30T21:50:11.189Z,5.83
2023-12-30T21:52:39.535Z,5.77
2023-12-30T21:55:09.984Z,6.02
2023-12-30T21:57:38.264Z,5.93
2023-12-30T22:00:06.271Z,5.81
2023-12-30T22:02:35.288Z,5.79
2023-12-30T22:05:02.600Z,5.76
2023-12-30T22:07:30.234Z,5.80
2023-12-30T22:09:57.631Z,5.71
2023-12-30T22:12:24.832Z,5.70
2023-12-30T22:14:52.109Z,5.75
2023-12-30T22:17:19.645Z,5.79
2023-12-30T22:19:48.446Z,5.89
2023-12-30T22:22:17.498Z,6.15
2023-12-30T22:24:45.569Z,6.07
2023-12-30T22:27:12.668Z,6.11
2023-12-30T22:29:39.825Z,6.18
2023-12-30T22:32:07.146Z,5.96
2023-12-30T22:34:36.709Z,5.86
2023-12-30T22:37:04.523Z,5.79
2023-12-30T22:39:32.275Z,5.86
2023-12-30T22:42:00.687Z,5.80
2023-12-30T22:44:27.782Z,5.80
2023-12-30T22:46:55.680Z,5.79
2023-12-30T22:49:25.693Z,5.72
2023-12-30T22:51:53.417Z,5.64
2023-12-30T22:54:22.187Z,5.62
2023-12-30T22:56:50.664Z,5.55
2023-12-30T22:59:18.195Z,5.68
2023-12-30T23:01:45.540Z,5.72
2023-12-30T23:04:14.524Z,5.71
2023-12-30T23:06:41.985Z,5.78
2023-12-30T23:09:09.560Z,5.87
2023-12-30T23:11:37.415Z,5.77
2023-12-30T23:14:05.339Z,5.73
2023-12-30T23:16:32.863Z,5.66
2023-12-30T23:19:02.868Z,5.52
2023-12-30T23:21:32.529Z,5.63
2023-12-30T23:24:00.518Z,5.83
2023-12-30T23:26:30.417Z,5.84
2023-12-30T23:28:58.250Z,5.86
2023-12-30T23:31:25.879Z,5.69
2023-12-30T23:33:53.425Z,5.73
2023-12-30T23:36:20.871Z,5.87
2023-12-30T23:38:48.394Z,5.75
2023-12-30T23:41:19.049Z,5.75
2023-12-30T23:43:48.556Z,5.81
2023-12-30T23:46:16.610Z,5.81
2023-12-30T23:48:43.896Z,5.70
2023-12-30T23:51:13.238Z,5.75
2023-12-30T23:53:41.481Z,5.72
2023-12-30T23:56:09.038Z,5.67
2023-12-30T23:58:36.219Z,5.58
